Time;durP1;ratioP1;P1;durP2;ratioP2;P2;SDS_P1;SDS_P2;PMS_P1;PMS_P2;Temp;Humidity;BMP_temperature;BMP_pressure;BME280_temperature;BME280_humidity;BME280_pressure;Samples;Min_cycle;Max_cycle;Signal;HPM_P1;HPM_P2
2022/07/22 00:00:27;;;;;;;;;;;;;;;;;;4955108;29;19954;-82
2022/07/22 00:02:52;;;;;;;;;;;;;;;;;;4955031;29;20127;-82
2022/07/22 00:05:17;;;;;;;;;;;;;;;;;;4937814;29;20068;-81
2022/07/22 00:07:43;;;;;;;;;;;;;;;;;;4906802;29;19914;-81
2022/07/22 00:10:10;;;;;;;;;;;;;;;;;;4935589;29;19934;-81
2022/07/22 00:12:35;;;;;;;;;;;;;;;;;;4918773;29;19915;-81
2022/07/22 00:15:01;;;;;;;;;;;;;;;;;;4935530;29;20033;-79
2022/07/22 00:17:26;;;;;;;;;;;;;;;;;;4935503;29;20356;-79
2022/07/22 00:19:52;;;;;;;;;;;;;;;;;;4935447;29;19915;-79
2022/07/22 00:22:17;;;;;;;;;;;;;;;;;;4935537;29;20305;-78
2022/07/22 00:24:42;;;;;;;;;;;;;;;;;;4950208;29;20271;-79
2022/07/22 00:27:07;;;;;;;;;;;;;;;;;;4954514;29;19918;-78
2022/07/22 00:29:33;;;;;;;;;;;;;;;;;;4953285;29;19918;-79
2022/07/22 00:31:58;;;;;;;;;;;;;;;;;;4937487;29;20453;-78
2022/07/22 00:34:23;;;;;;;;;;;;;;;;;;4954222;28;19914;-78
2022/07/22 00:36:50;;;;;;;;;;;;;;;;;;4937474;29;19911;-79
2022/07/22 00:39:15;;;;;;;;;;;;;;;;;;4954008;29;19938;-79
2022/07/22 00:41:42;;;;;;;;;;;;;;;;;;4937131;29;19945;-80
2022/07/22 00:44:07;;;;;;;;;;;;;;;;;;4954195;29;19994;-78
2022/07/22 00:46:32;;;;;;;;;;;;;;;;;;4952930;29;19926;-81
2022/07/22 00:48:58;;;;;;;;;;;;;;;;;;4953043;29;19915;-81
2022/07/22 00:51:23;;;;;;;;;;;;;;;;;;4954188;29;19921;-80
2022/07/22 00:53:49;;;;;;;;;;;;;;;;;;4952895;29;19954;-82
2022/07/22 00:56:14;;;;;;;;;;;;;;;;;;4953206;29;19961;-80
2022/07/22 00:58:40;;;;;;;;;;;;;;;;;;4953768;29;19919;-82
2022/07/22 01:01:05;;;;;;;;;;;;;;;;;;4936187;29;20382;-81
2022/07/22 01:03:31;;;;;;;;;;;;;;;;;;4954441;29;19918;-80
2022/07/22 01:05:59;;;;;;;;;;;;;;;;;;4955203;29;20416;-79
2022/07/22 01:08:24;;;;;;;;;;;;;;;;;;4936766;29;19914;-79
2022/07/22 01:10:50;;;;;;;;;;;;;;;;;;4936616;29;20434;-79
2022/07/22 01:13:15;;;;;;;;;;;;;;;;;;4936858;29;19921;-80
2022/07/22 01:15:41;;;;;;;;;;;;;;;;;;4936809;29;19962;-82
2022/07/22 01:18:06;;;;;;;;;;;;;;;;;;4954123;29;20358;-81
2022/07/22 01:20:31;;;;;;;;;;;;;;;;;;4952849;29;19964;-82
2022/07/22 01:22:57;;;;;;;;;;;;;;;;;;4952849;29;20041;-82
2022/07/22 01:25:22;;;;;;;;;;;;;;;;;;4936878;29;19937;-81
2022/07/22 01:27:47;;;;;;;;;;;;;;;;;;4935986;29;20481;-80
2022/07/22 01:30:13;;;;;;;;;;;;;;;;;;4936650;29;19926;-80
2022/07/22 01:32:38;;;;;;;;;;;;;;;;;;4936636;29;19996;-80
2022/07/22 01:35:04;;;;;;;;;;;;;;;;;;4937044;29;20286;-80
2022/07/22 01:37:29;;;;;;;;;;;;;;;;;;4936878;29;19914;-81
2022/07/22 01:39:55;;;;;;;;;;;;;;;;;;4936937;29;20300;-83
2022/07/22 01:42:20;;;;;;;;;;;;;;;;;;4936582;29;19961;-80
2022/07/22 01:44:45;;;;;;;;;;;;;;;;;;4936074;29;19921;-79
2022/07/22 01:47:11;;;;;;;;;;;;;;;;;;4936916;29;20290;-79
2022/07/22 01:49:36;;;;;;;;;;;;;;;;;;4953989;29;19922;-78
2022/07/22 01:52:02;;;;;;;;;;;;;;;;;;4936669;29;20013;-80
2022/07/22 01:54:27;;;;;;;;;;;;;;;;;;4920987;29;19972;-78
2022/07/22 01:56:52;;;;;;;;;;;;;;;;;;4936790;29;19976;-78
2022/07/22 01:59:18;;;;;;;;;;;;;;;;;;4936042;29;19922;-79
2022/07/22 02:01:44;;;;;;;;;;;;;;;;;;4952199;29;19915;-80
2022/07/22 02:04:10;;;;;;;;;;;;;;;;;;4952197;29;19914;-79
2022/07/22 02:06:35;;;;;;;;;;;;;;;;;;4952456;29;19937;-78
2022/07/22 02:09:00;;;;;;;;;;;;;;;;;;4936220;29;19918;-78
2022/07/22 02:11:52;;;;;;;;;;;;;;;;;;4951951;28;19918;-82
2022/07/22 02:14:17;;;;;;;;;;;;;;;;;;4955594;29;20444;-81
2022/07/22 02:16:43;;;;;;;;;;;;;;;;;;4955790;29;20398;-79
2022/07/22 02:19:10;;;;;;;;;;;;;;;;;;4928084;29;19911;-83
2022/07/22 02:21:36;;;;;;;;;;;;;;;;;;4937929;29;19915;-80
2022/07/22 02:24:01;;;;;;;;;;;;;;;;;;4937432;29;19970;-78
2022/07/22 02:26:27;;;;;;;;;;;;;;;;;;4905231;29;19922;-80
2022/07/22 02:28:52;;;;;;;;;;;;;;;;;;4937883;29;20338;-79
2022/07/22 02:31:20;;;;;;;;;;;;;;;;;;4921115;29;19919;-78
2022/07/22 02:33:45;;;;;;;;;;;;;;;;;;4937878;29;19914;-80
2022/07/22 02:36:10;;;;;;;;;;;;;;;;;;4938560;29;19953;-80
2022/07/22 02:38:36;;;;;;;;;;;;;;;;;;4939889;29;20051;-81
2022/07/22 02:41:01;;;;;;;;;;;;;;;;;;4940876;29;19919;-82
2022/07/22 02:43:26;;;;;;;;;;;;;;;;;;4957294;29;19919;-82
2022/07/22 02:45:53;;;;;;;;;;;;;;;;;;4943736;29;19914;-81
2022/07/22 02:48:18;;;;;;;;;;;;;;;;;;4961479;29;19914;-83
2022/07/22 02:50:43;;;;;;;;;;;;;;;;;;4964829;29;20005;-84
2022/07/22 02:53:09;;;;;;;;;;;;;;;;;;4925590;29;19922;-83
2022/07/22 02:55:37;;;;;;;;;;;;;;;;;;4940555;29;19910;-82
2022/07/22 02:58:03;;;;;;;;;;;;;;;;;;4944588;29;20001;-83
2022/07/22 03:00:29;;;;;;;;;;;;;;;;;;4929380;29;19953;-81
2022/07/22 03:02:54;;;;;;;;;;;;;;;;;;4946097;29;19958;-83
2022/07/22 03:05:20;;;;;;;;;;;;;;;;;;4944129;29;19922;-82
2022/07/22 03:07:50;;;;;;;;;;;;;;;;;;4942157;29;19918;-80
2022/07/22 03:10:16;;;;;;;;;;;;;;;;;;4938179;29;19918;-82
2022/07/22 03:12:41;;;;;;;;;;;;;;;;;;4938672;29;19914;-81
2022/07/22 03:15:06;;;;;;;;;;;;;;;;;;4954915;29;19922;-81
2022/07/22 03:17:34;;;;;;;;;;;;;;;;;;4954887;29;19915;-81
2022/07/22 03:20:00;;;;;;;;;;;;;;;;;;4954957;29;20293;-82
2022/07/22 03:22:25;;;;;;;;;;;;;;;;;;4955914;29;19946;-82
2022/07/22 03:24:50;;;;;;;;;;;;;;;;;;4954417;28;19918;-82
2022/07/22 03:27:16;;;;;;;;;;;;;;;;;;4954740;29;20001;-83
2022/07/22 03:29:41;;;;;;;;;;;;;;;;;;4953911;29;20405;-83
2022/07/22 03:32:06;;;;;;;;;;;;;;;;;;4954410;29;19914;-82
2022/07/22 03:34:43;;;;;;;;;;;;;;;;;;4938205;29;19919;-81
2022/07/22 03:37:09;;;;;;;;;;;;;;;;;;4938628;29;20408;-81
2022/07/22 03:39:34;;;;;;;;;;;;;;;;;;4938485;29;19918;-82
2022/07/22 03:42:00;;;;;;;;;;;;;;;;;;4954317;29;19962;-81
2022/07/22 03:44:26;;;;;;;;;;;;;;;;;;4953484;29;19914;-80
2022/07/22 03:46:51;;;;;;;;;;;;;;;;;;4954747;29;19915;-80
2022/07/22 03:49:17;;;;;;;;;;;;;;;;;;4954472;29;20070;-81
2022/07/22 03:51:43;;;;;;;;;;;;;;;;;;4954347;29;19950;-81
2022/07/22 03:54:08;;;;;;;;;;;;;;;;;;4938098;29;19914;-81
2022/07/22 03:56:37;;;;;;;;;;;;;;;;;;4954013;29;19914;-81
2022/07/22 03:59:03;;;;;;;;;;;;;;;;;;4938272;29;19965;-79
2022/07/22 04:01:29;;;;;;;;;;;;;;;;;;4953552;29;20393;-79
2022/07/22 04:03:55;;;;;;;;;;;;;;;;;;4922082;29;19922;-81
2022/07/22 04:06:27;;;;;;;;;;;;;;;;;;4938293;29;19922;-80
2022/07/22 04:08:59;;;;;;;;;;;;;;;;;;4954042;29;19922;-79
2022/07/22 04:11:24;;;;;;;;;;;;;;;;;;4938083;29;19996;-80
2022/07/22 04:13:50;;;;;;;;;;;;;;;;;;4954089;29;20425;-82
2022/07/22 04:16:15;;;;;;;;;;;;;;;;;;4922430;29;19917;-83
2022/07/22 04:18:49;;;;;;;;;;;;;;;;;;4953562;29;19914;-83
2022/07/22 04:21:16;;;;;;;;;;;;;;;;;;4933970;29;19915;-83
2022/07/22 04:23:48;;;;;;;;;;;;;;;;;;4937896;29;20289;-80
2022/07/22 04:26:25;;;;;;;;;;;;;;;;;;4937797;29;19914;-80
2022/07/22 04:28:51;;;;;;;;;;;;;;;;;;4938096;29;19926;-81
2022/07/22 04:31:17;;;;;;;;;;;;;;;;;;4922067;29;19962;-80
2022/07/22 04:33:42;;;;;;;;;;;;;;;;;;4937822;29;20421;-79
2022/07/22 04:36:08;;;;;;;;;;;;;;;;;;4937146;29;19965;-80
2022/07/22 04:38:36;;;;;;;;;;;;;;;;;;4933411;29;19914;-84
2022/07/22 04:41:05;;;;;;;;;;;;;;;;;;4907409;29;20474;-79
2022/07/22 04:43:30;;;;;;;;;;;;;;;;;;4932893;29;19926;-79
2022/07/22 04:45:56;;;;;;;;;;;;;;;;;;4937222;29;20370;-78
2022/07/22 04:48:23;;;;;;;;;;;;;;;;;;4937047;29;20441;-80
2022/07/22 04:50:49;;;;;;;;;;;;;;;;;;4937051;29;19922;-78
2022/07/22 04:53:14;;;;;;;;;;;;;;;;;;4937105;29;19938;-78
2022/07/22 04:55:39;;;;;;;;;;;;;;;;;;4937305;29;20400;-78
2022/07/22 04:58:05;;;;;;;;;;;;;;;;;;4937279;29;20351;-79
2022/07/22 05:00:30;;;;;;;;;;;;;;;;;;4954437;29;19918;-84
2022/07/22 05:02:55;;;;;;;;;;;;;;;;;;4937563;29;19974;-82
2022/07/22 05:05:21;;;;;;;;;;;;;;;;;;4937805;29;19964;-83
2022/07/22 05:07:46;;;;;;;;;;;;;;;;;;4921335;29;19941;-83
2022/07/22 05:10:12;;;;;;;;;;;;;;;;;;4937331;29;19918;-82
2022/07/22 05:12:37;;;;;;;;;;;;;;;;;;4921656;29;20382;-84
2022/07/22 05:15:02;;;;;;;;;;;;;;;;;;4922004;29;20371;-84
2022/07/22 05:17:28;;;;;;;;;;;;;;;;;;4937824;29;19922;-84
2022/07/22 05:20:16;;;;;;;;;;;;;;;;;;4954545;29;19960;-84
2022/07/22 05:22:41;;;;;;;;;;;;;;;;;;4937748;29;20361;-84
2022/07/22 05:25:12;;;;;;;;;;;;;;;;;;4936575;29;20381;-83
2022/07/22 05:27:38;;;;;;;;;;;;;;;;;;4938135;29;20022;-84
2022/07/22 05:30:03;;;;;;;;;;;;;;;;;;4921306;29;19925;-83
2022/07/22 05:32:30;;;;;;;;;;;;;;;;;;4937278;29;19915;-83
2022/07/22 05:34:59;;;;;;;;;;;;;;;;;;4937612;29;19922;-81
2022/07/22 05:37:24;;;;;;;;;;;;;;;;;;4937849;29;19965;-80
2022/07/22 05:39:50;;;;;;;;;;;;;;;;;;4921521;29;20354;-80
2022/07/22 05:42:15;;;;;;;;;;;;;;;;;;4936843;29;20362;-79
2022/07/22 05:44:40;;;;;;;;;;;;;;;;;;4955466;29;20353;-80
2022/07/22 05:47:06;;;;;;;;;;;;;;;;;;4958182;28;20016;-81
2022/07/22 05:49:31;;;;;;;;;;;;;;;;;;4942600;29;19918;-83
2022/07/22 05:52:02;;;;;;;;;;;;;;;;;;4959321;29;19922;-84
2022/07/22 05:54:27;;;;;;;;;;;;;;;;;;4944331;29;20041;-87
2022/07/22 05:56:52;;;;;;;;;;;;;;;;;;4928806;29;20359;-86
2022/07/22 05:59:18;;;;;;;;;;;;;;;;;;4931718;29;19915;-89
2022/07/22 06:01:43;;;;;;;;;;;;;;;;;;4921679;29;19915;-89
2022/07/22 06:04:29;;;;;;;;;;;;;;;;;;4935665;29;19943;-89
2022/07/22 06:06:54;;;;;;;;;;;;;;;;;;4933553;29;19915;-87
2022/07/22 06:09:20;;;;;;;;;;;;;;;;;;4934365;29;19915;-87
2022/07/22 06:11:46;;;;;;;;;;;;;;;;;;4914954;29;19915;-87
2022/07/22 06:14:11;;;;;;;;;;;;;;;;;;4927711;29;19944;-87
2022/07/22 06:16:37;;;;;;;;;;;;;;;;;;4956397;29;19915;-83
2022/07/22 06:19:02;;;;;;;;;;;;;;;;;;4939749;29;20308;-86
2022/07/22 06:21:28;;;;;;;;;;;;;;;;;;4958007;29;19915;-87
2022/07/22 06:23:56;;;;;;;;;;;;;;;;;;4939830;29;19914;-83
2022/07/22 06:26:22;;;;;;;;;;;;;;;;;;4940214;29;20013;-83
2022/07/22 06:28:48;;;;;;;;;;;;;;;;;;4939947;29;19942;-84
2022/07/22 06:31:13;;;;;;;;;;;;;;;;;;4940091;29;19931;-85
2022/07/22 06:33:38;;;;;;;;;;;;;;;;;;4954953;29;20416;-83
2022/07/22 06:36:04;;;;;;;;;;;;;;;;;;4940294;29;20002;-82
2022/07/22 06:38:30;;;;;;;;;;;;;;;;;;4940161;29;19998;-80
2022/07/22 06:41:31;;;;;;;;;;;;;;;;;;4946484;29;20009;-84
2022/07/22 06:44:02;;;;;;;;;;;;;;;;;;4956118;29;20437;-81
2022/07/22 06:46:43;;;;;;;;;;;;;;;;;;4939539;29;20289;-82
2022/07/22 06:49:09;;;;;;;;;;;;;;;;;;4923440;29;19915;-81
2022/07/22 06:51:35;;;;;;;;;;;;;;;;;;4940255;29;19910;-81
2022/07/22 06:54:00;;;;;;;;;;;;;;;;;;4939476;29;20009;-82
2022/07/22 06:56:26;;;;;;;;;;;;;;;;;;4939955;29;19922;-81
2022/07/22 06:58:51;;;;;;;;;;;;;;;;;;4923374;29;19919;-84
2022/07/22 07:01:17;;;;;;;;;;;;;;;;;;4939354;29;20402;-82
2022/07/22 07:03:58;;;;;;;;;;;;;;;;;;4956452;29;19994;-82
2022/07/22 07:06:24;;;;;;;;;;;;;;;;;;4938757;29;20400;-82
2022/07/22 07:09:16;;;;;;;;;;;;;;;;;;4937154;29;19962;-79
2022/07/22 07:11:48;;;;;;;;;;;;;;;;;;4956452;29;20020;-79
2022/07/22 07:14:28;;;;;;;;;;;;;;;;;;4955501;29;19941;-80
2022/07/22 07:16:53;;;;;;;;;;;;;;;;;;4939753;29;19914;-82
2022/07/22 07:19:19;;;;;;;;;;;;;;;;;;4955763;29;19915;-80
2022/07/22 07:21:45;;;;;;;;;;;;;;;;;;4954374;29;20457;-79
2022/07/22 07:24:11;;;;;;;;;;;;;;;;;;4938964;29;19960;-79
2022/07/22 07:26:36;;;;;;;;;;;;;;;;;;4939193;29;19918;-81
2022/07/22 07:29:02;;;;;;;;;;;;;;;;;;4923589;29;19922;-79
2022/07/22 07:31:31;;;;;;;;;;;;;;;;;;4924057;29;20013;-80
2022/07/22 07:33:57;;;;;;;;;;;;;;;;;;4939007;29;19926;-79
2022/07/22 07:36:23;;;;;;;;;;;;;;;;;;5000413;23;19925;-85
2022/07/22 07:38:49;;;;;;;;;;;;;;;;;;4995664;28;19937;-84
2022/07/22 07:41:15;;;;;;;;;;;;;;;;;;5014218;28;20008;-84
2022/07/22 07:43:41;;;;;;;;;;;;;;;;;;4997074;28;19968;-85
2022/07/22 07:46:07;;;;;;;;;;;;;;;;;;5010656;28;20269;-84
2022/07/22 07:48:33;;;;;;;;;;;;;;;;;;5011084;28;19956;-84
2022/07/22 07:50:59;;;;;;;;;;;;;;;;;;5009718;28;19957;-86
2022/07/22 07:53:24;;;;;;;;;;;;;;;;;;5033942;28;19920;-86
2022/07/22 07:55:50;;;;;;;;;;;;;;;;;;4995788;28;19963;-84
2022/07/22 07:58:16;;;;;;;;;;;;;;;;;;4993964;28;20000;-84
2022/07/22 08:00:42;;;;;;;;;;;;;;;;;;5010330;28;20407;-83
2022/07/22 08:03:08;;;;;;;;;;;;;;;;;;4982428;28;20004;-85
2022/07/22 08:05:35;;;;;;;;;;;;;;;;;;4978494;28;20004;-84
2022/07/22 08:08:00;;;;;;;;;;;;;;;;;;5010365;28;19922;-86
2022/07/22 08:10:26;;;;;;;;;;;;;;;;;;4965992;28;19925;-86
2022/07/22 08:13:06;;;;;;;;;;;;;;;;;;4974582;28;20001;-87
2022/07/22 08:15:58;;;;;;;;;;;;;;;;;;4974437;28;19914;-87
2022/07/22 08:18:24;;;;;;;;;;;;;;;;;;4976129;28;19925;-84
2022/07/22 08:20:50;;;;;;;;;;;;;;;;;;5004669;28;19910;-83
2022/07/22 08:23:17;;;;;;;;;;;;;;;;;;4982158;28;19921;-84
2022/07/22 08:25:44;;;;;;;;;;;;;;;;;;4964322;28;20005;-84
2022/07/22 08:28:10;;;;;;;;;;;;;;;;;;4992543;28;20000;-79
2022/07/22 08:30:36;;;;;;;;;;;;;;;;;;5005995;28;19917;-78
2022/07/22 08:33:01;;;;;;;;;;;;;;;;;;5001954;28;19910;-78
2022/07/22 08:35:29;;;;;;;;;;;;;;;;;;5004513;28;19926;-78
2022/07/22 08:37:55;;;;;;;;;;;;;;;;;;4991975;28;19921;-80
2022/07/22 08:40:21;;;;;;;;;;;;;;;;;;5008947;28;19921;-83
2022/07/22 08:42:47;;;;;;;;;;;;;;;;;;4979029;28;20293;-83
2022/07/22 08:45:14;;;;;;;;;;;;;;;;;;4983050;28;19910;-82
2022/07/22 08:47:39;;;;;;;;;;;;;;;;;;4988006;28;20008;-83
2022/07/22 08:50:15;;;;;;;;;;;;;;;;;;4994385;28;20211;-84
2022/07/22 08:52:49;;;;;;;;;;;;;;;;;;4991538;28;19914;-85
2022/07/22 08:55:14;;;;;;;;;;;;;;;;;;5002770;28;19905;-85
2022/07/22 08:57:40;;;;;;;;;;;;;;;;;;5009675;28;19949;-85
2022/07/22 09:00:05;;;;;;;;;;;;;;;;;;4996774;28;19961;-86
2022/07/22 09:02:31;;;;;;;;;;;;;;;;;;5016375;28;20488;-88
2022/07/22 09:04:57;;;;;;;;;;;;;;;;;;4990032;28;19910;-86
2022/07/22 09:07:23;;;;;;;;;;;;;;;;;;4994606;28;19914;-84
2022/07/22 09:09:49;;;;;;;;;;;;;;;;;;4985194;28;20354;-86
2022/07/22 09:12:34;;;;;;;;;;;;;;;;;;4979280;28;20273;-86
2022/07/22 09:15:20;;;;;;;;;;;;;;;;;;5004971;28;19949;-85
2022/07/22 09:18:03;;;;;;;;;;;;;;;;;;5006998;28;19953;-87
2022/07/22 09:20:39;;;;;;;;;;;;;;;;;;4997877;28;19961;-87
2022/07/22 09:23:37;;;;;;;;;;;;;;;;;;4997726;28;19920;-87
2022/07/22 09:26:02;;;;;;;;;;;;;;;;;;4984453;28;19913;-87
2022/07/22 09:29:06;;;;;;;;;;;;;;;;;;4964612;28;19911;-86
2022/07/22 09:31:32;;;;;;;;;;;;;;;;;;4960620;29;19929;-85
2022/07/22 09:34:19;;;;;;;;;;;;;;;;;;4976870;28;19914;-86
2022/07/22 09:36:44;;;;;;;;;;;;;;;;;;5023523;28;20504;-86
2022/07/22 09:39:10;;;;;;;;;;;;;;;;;;5013558;28;20215;-87
2022/07/22 09:41:35;;;;;;;;;;;;;;;;;;5001227;28;20258;-86
2022/07/22 09:44:01;;;;;;;;;;;;;;;;;;4997559;28;20324;-84
2022/07/22 09:46:27;;;;;;;;;;;;;;;;;;4985913;28;20396;-85
2022/07/22 09:49:05;;;;;;;;;;;;;;;;;;5005915;28;19914;-86
2022/07/22 09:51:42;;;;;;;;;;;;;;;;;;4984220;28;19918;-86
2022/07/22 09:54:37;;;;;;;;;;;;;;;;;;4985680;28;19913;-85
2022/07/22 09:57:03;;;;;;;;;;;;;;;;;;4988283;28;20266;-85
2022/07/22 09:59:29;;;;;;;;;;;;;;;;;;4997263;28;19910;-86
2022/07/22 10:02:14;;;;;;;;;;;;;;;;;;4979178;28;19914;-83
2022/07/22 10:04:40;;;;;;;;;;;;;;;;;;4987763;28;19914;-84
2022/07/22 10:07:08;;;;;;;;;;;;;;;;;;5002303;28;19920;-83
2022/07/22 10:09:36;;;;;;;;;;;;;;;;;;4995144;28;19918;-85
2022/07/22 10:12:02;;;;;;;;;;;;;;;;;;4978295;28;19914;-86
2022/07/22 10:14:28;;;;;;;;;;;;;;;;;;4996842;28;19992;-81
2022/07/22 10:16:59;;;;;;;;;;;;;;;;;;4994635;28;19945;-80
2022/07/22 10:19:25;;;;;;;;;;;;;;;;;;4982126;28;20270;-79
2022/07/22 10:21:50;;;;;;;;;;;;;;;;;;4990904;28;19914;-79
2022/07/22 10:24:23;;;;;;;;;;;;;;;;;;4978279;28;19914;-80
2022/07/22 10:26:57;;;;;;;;;;;;;;;;;;4978020;28;20330;-79
2022/07/22 10:29:22;;;;;;;;;;;;;;;;;;5010345;28;19921;-79
2022/07/22 10:31:48;;;;;;;;;;;;;;;;;;4993962;28;19936;-78
2022/07/22 10:34:13;;;;;;;;;;;;;;;;;;4992978;28;19914;-79
2022/07/22 10:36:42;;;;;;;;;;;;;;;;;;4993825;28;20390;-80
2022/07/22 10:39:08;;;;;;;;;;;;;;;;;;5010413;28;19914;-80
2022/07/22 10:41:34;;;;;;;;;;;;;;;;;;4994262;28;20324;-79
2022/07/22 10:43:59;;;;;;;;;;;;;;;;;;4993770;28;19964;-79
2022/07/22 10:46:25;;;;;;;;;;;;;;;;;;4994201;28;19914;-81
2022/07/22 10:48:50;;;;;;;;;;;;;;;;;;4993917;28;19918;-79
2022/07/22 10:51:16;;;;;;;;;;;;;;;;;;5010255;28;19914;-81
2022/07/22 10:53:41;;;;;;;;;;;;;;;;;;4995434;28;20130;-79
2022/07/22 10:56:09;;;;;;;;;;;;;;;;;;4993628;28;20309;-81
2022/07/22 10:58:35;;;;;;;;;;;;;;;;;;4977764;28;19910;-82
2022/07/22 11:01:03;;;;;;;;;;;;;;;;;;4994125;28;19979;-80
2022/07/22 11:03:29;;;;;;;;;;;;;;;;;;5009615;28;19910;-80
2022/07/22 11:05:56;;;;;;;;;;;;;;;;;;4995361;28;19937;-80
2022/07/22 11:08:21;;;;;;;;;;;;;;;;;;5027778;28;19917;-80
2022/07/22 11:10:46;;;;;;;;;;;;;;;;;;4997382;28;19925;-81
2022/07/22 11:13:12;;;;;;;;;;;;;;;;;;5011718;28;20039;-80
2022/07/22 11:15:38;;;;;;;;;;;;;;;;;;4993080;28;19960;-81
2022/07/22 11:18:03;;;;;;;;;;;;;;;;;;4990682;28;19937;-80
2022/07/22 11:20:29;;;;;;;;;;;;;;;;;;4993685;28;19913;-80
2022/07/22 11:22:55;;;;;;;;;;;;;;;;;;5009529;28;19910;-81
2022/07/22 11:25:21;;;;;;;;;;;;;;;;;;4993569;28;19914;-80
2022/07/22 11:27:46;;;;;;;;;;;;;;;;;;4977560;28;20017;-79
2022/07/22 11:30:12;;;;;;;;;;;;;;;;;;4993247;28;19917;-80
2022/07/22 11:32:37;;;;;;;;;;;;;;;;;;5006992;28;19956;-80
2022/07/22 11:35:03;;;;;;;;;;;;;;;;;;4993868;28;19914;-80
2022/07/22 11:37:28;;;;;;;;;;;;;;;;;;5009908;28;19973;-80
2022/07/22 11:39:54;;;;;;;;;;;;;;;;;;5010563;28;20347;-80
2022/07/22 11:42:19;;;;;;;;;;;;;;;;;;4995086;28;20428;-80
2022/07/22 11:44:44;;;;;;;;;;;;;;;;;;5010129;28;19995;-81
2022/07/22 11:47:10;;;;;;;;;;;;;;;;;;5010507;28;20411;-80
2022/07/22 11:49:36;;;;;;;;;;;;;;;;;;4987830;28;19922;-81
2022/07/22 11:52:01;;;;;;;;;;;;;;;;;;4974353;28;19911;-81
2022/07/22 11:54:27;;;;;;;;;;;;;;;;;;4974901;28;19919;-81
2022/07/22 11:56:52;;;;;;;;;;;;;;;;;;4973860;28;19936;-79
2022/07/22 11:59:18;;;;;;;;;;;;;;;;;;4973489;28;19921;-80
2022/07/22 12:01:43;;;;;;;;;;;;;;;;;;4973332;28;19914;-79
2022/07/22 12:04:09;;;;;;;;;;;;;;;;;;4957052;28;19922;-79
2022/07/22 12:06:37;;;;;;;;;;;;;;;;;;4975444;28;20006;-79
2022/07/22 12:09:02;;;;;;;;;;;;;;;;;;4976220;28;19945;-80
2022/07/22 12:11:28;;;;;;;;;;;;;;;;;;4989207;28;20322;-80
2022/07/22 12:13:53;;;;;;;;;;;;;;;;;;4988811;28;20420;-80
2022/07/22 12:16:19;;;;;;;;;;;;;;;;;;4956875;28;20325;-79
2022/07/22 12:18:45;;;;;;;;;;;;;;;;;;4974005;28;20012;-80
2022/07/22 12:21:10;;;;;;;;;;;;;;;;;;4973384;28;19993;-80
2022/07/22 12:23:36;;;;;;;;;;;;;;;;;;4988213;28;20289;-78
2022/07/22 12:26:01;;;;;;;;;;;;;;;;;;4988930;28;19918;-79
2022/07/22 12:28:27;;;;;;;;;;;;;;;;;;4973998;28;20297;-80
2022/07/22 12:30:52;;;;;;;;;;;;;;;;;;4973762;28;20009;-80
2022/07/22 12:33:18;;;;;;;;;;;;;;;;;;4990928;28;19921;-80
2022/07/22 12:35:44;;;;;;;;;;;;;;;;;;4979576;28;19961;-80
2022/07/22 12:38:09;;;;;;;;;;;;;;;;;;4978768;28;19910;-80
2022/07/22 12:40:35;;;;;;;;;;;;;;;;;;4982631;28;20369;-81
2022/07/22 12:43:01;;;;;;;;;;;;;;;;;;4999969;28;19976;-82
2022/07/22 12:45:26;;;;;;;;;;;;;;;;;;5031970;28;19914;-80
2022/07/22 12:47:55;;;;;;;;;;;;;;;;;;4998922;28;19913;-78
2022/07/22 12:50:21;;;;;;;;;;;;;;;;;;4997548;28;19914;-80
2022/07/22 12:52:47;;;;;;;;;;;;;;;;;;5014111;28;19968;-80
2022/07/22 12:55:13;;;;;;;;;;;;;;;;;;5013123;28;19925;-80
2022/07/22 12:57:38;;;;;;;;;;;;;;;;;;4988390;28;19914;-80
2022/07/22 13:00:04;;;;;;;;;;;;;;;;;;4981880;28;19910;-80
2022/07/22 13:02:29;;;;;;;;;;;;;;;;;;4974008;28;19918;-81
2022/07/22 13:04:55;;;;;;;;;;;;;;;;;;4997886;28;19914;-80
2022/07/22 13:07:20;;;;;;;;;;;;;;;;;;5001150;28;20012;-80
2022/07/22 13:09:46;;;;;;;;;;;;;;;;;;4976339;28;20361;-80
2022/07/22 13:12:11;;;;;;;;;;;;;;;;;;4987922;28;19925;-79
2022/07/22 13:14:37;;;;;;;;;;;;;;;;;;4994974;23;19914;-81
2022/07/22 13:17:03;;;;;;;;;;;;;;;;;;4937335;29;20348;-79
2022/07/22 13:19:28;;;;;;;;;;;;;;;;;;4936871;29;19914;-80
2022/07/22 13:21:54;;;;;;;;;;;;;;;;;;4952429;29;19911;-79
2022/07/22 13:24:19;;;;;;;;;;;;;;;;;;4952158;29;20358;-80
2022/07/22 13:26:45;;;;;;;;;;;;;;;;;;4936260;29;20306;-80
2022/07/22 13:29:11;;;;;;;;;;;;;;;;;;4911975;29;20286;-80
2022/07/22 13:31:37;;;;;;;;;;;;;;;;;;4938458;23;19973;-81
2022/07/22 13:34:02;;;;;;;;;;;;;;;;;;4953993;29;20970;-80
2022/07/22 13:36:28;;;;;;;;;;;;;;;;;;4953501;28;20333;-88
2022/07/22 13:38:53;;;;;;;;;;;;;;;;;;4953456;29;20474;-81
2022/07/22 13:41:19;;;;;;;;;;;;;;;;;;4951954;28;20013;-81
2022/07/22 13:43:44;;;;;;;;;;;;;;;;;;4931063;29;20381;-80
2022/07/22 13:46:10;;;;;;;;;;;;;;;;;;4933195;29;20393;-82
2022/07/22 13:48:35;;;;;;;;;;;;;;;;;;4946094;29;20046;-82
2022/07/22 13:51:01;;;;;;;;;;;;;;;;;;4938161;28;19919;-79
2022/07/22 13:53:26;;;;;;;;;;;;;;;;;;4928361;29;20305;-82
2022/07/22 13:55:52;;;;;;;;;;;;;;;;;;4946224;29;19915;-82
2022/07/22 13:58:17;;;;;;;;;;;;;;;;;;4934270;29;19915;-82
2022/07/22 14:00:42;;;;;;;;;;;;;;;;;;4946203;28;19993;-83
2022/07/22 14:03:08;;;;;;;;;;;;;;;;;;4926633;29;20346;-82
2022/07/22 14:05:33;;;;;;;;;;;;;;;;;;4932971;29;19915;-82
2022/07/22 14:07:59;;;;;;;;;;;;;;;;;;4949535;28;19919;-81
2022/07/22 14:10:24;;;;;;;;;;;;;;;;;;4952570;28;20445;-83
2022/07/22 14:12:50;;;;;;;;;;;;;;;;;;4937617;29;20349;-80
2022/07/22 14:15:15;;;;;;;;;;;;;;;;;;4937605;29;19962;-80
2022/07/22 14:17:40;;;;;;;;;;;;;;;;;;4933948;29;19954;-80
2022/07/22 14:20:07;;;;;;;;;;;;;;;;;;4938057;29;19925;-81
2022/07/22 14:22:33;;;;;;;;;;;;;;;;;;4938696;29;19918;-80
2022/07/22 14:24:58;;;;;;;;;;;;;;;;;;4950490;29;19916;-80
2022/07/22 14:27:23;;;;;;;;;;;;;;;;;;4932886;29;20355;-83
2022/07/22 14:29:49;;;;;;;;;;;;;;;;;;4937335;29;20405;-81
2022/07/22 14:32:14;;;;;;;;;;;;;;;;;;4940086;29;19918;-79
2022/07/22 14:34:40;;;;;;;;;;;;;;;;;;4939256;29;19914;-83
2022/07/22 14:37:05;;;;;;;;;;;;;;;;;;4925564;29;19938;-87
2022/07/22 14:39:31;;;;;;;;;;;;;;;;;;4938891;29;19938;-80
2022/07/22 14:41:56;;;;;;;;;;;;;;;;;;4957029;28;20004;-81
2022/07/22 14:44:21;;;;;;;;;;;;;;;;;;4941246;29;20375;-80
2022/07/22 14:46:47;;;;;;;;;;;;;;;;;;4924099;29;19990;-81
2022/07/22 14:49:13;;;;;;;;;;;;;;;;;;4940930;29;19926;-79
2022/07/22 14:51:38;;;;;;;;;;;;;;;;;;4941246;29;20426;-81
2022/07/22 14:54:06;;;;;;;;;;;;;;;;;;4939793;29;19986;-82
2022/07/22 14:56:31;;;;;;;;;;;;;;;;;;4933997;29;20051;-81
2022/07/22 14:58:57;;;;;;;;;;;;;;;;;;4907210;29;20376;-82
2022/07/22 15:01:22;;;;;;;;;;;;;;;;;;4925364;29;19961;-81
2022/07/22 15:03:47;;;;;;;;;;;;;;;;;;4921181;29;19934;-79
2022/07/22 15:06:13;;;;;;;;;;;;;;;;;;4920514;29;20298;-79
2022/07/22 15:08:38;;;;;;;;;;;;;;;;;;4888438;29;19962;-80
2022/07/22 15:11:04;;;;;;;;;;;;;;;;;;4920810;29;20220;-80
2022/07/22 15:13:29;;;;;;;;;;;;;;;;;;4918007;29;19915;-81
2022/07/22 15:15:54;;;;;;;;;;;;;;;;;;4922277;29;19939;-80
2022/07/22 15:18:20;;;;;;;;;;;;;;;;;;4920878;29;19911;-80
2022/07/22 15:20:45;;;;;;;;;;;;;;;;;;4918573;29;19938;-80
2022/07/22 15:23:11;;;;;;;;;;;;;;;;;;4918624;29;19926;-81
2022/07/22 15:25:37;;;;;;;;;;;;;;;;;;4917110;29;20393;-79
2022/07/22 15:28:02;;;;;;;;;;;;;;;;;;4901209;29;19915;-81
2022/07/22 15:30:27;;;;;;;;;;;;;;;;;;4917687;29;19925;-80
2022/07/22 15:32:53;;;;;;;;;;;;;;;;;;4916668;29;19919;-80
2022/07/22 15:35:18;;;;;;;;;;;;;;;;;;4917516;29;20302;-80
2022/07/22 15:37:44;;;;;;;;;;;;;;;;;;4917313;29;20001;-80
2022/07/22 15:40:09;;;;;;;;;;;;;;;;;;4917077;29;19915;-82
2022/07/22 15:42:35;;;;;;;;;;;;;;;;;;4916584;29;20303;-81
2022/07/22 15:45:00;;;;;;;;;;;;;;;;;;4917301;29;19915;-80
2022/07/22 15:47:26;;;;;;;;;;;;;;;;;;4900241;29;19946;-80
2022/07/22 15:49:51;;;;;;;;;;;;;;;;;;4915507;29;19919;-80
2022/07/22 15:52:17;;;;;;;;;;;;;;;;;;4915760;29;19919;-80
2022/07/22 15:54:43;;;;;;;;;;;;;;;;;;4915692;29;19918;-79
2022/07/22 15:59:52;;;;;;;;;;;;;;;;;;4917284;29;20054;-80
2022/07/22 16:02:18;;;;;;;;;;;;;;;;;;4916687;29;19986;-80
2022/07/22 16:04:43;;;;;;;;;;;;;;;;;;4916877;29;19919;-80
2022/07/22 16:07:08;;;;;;;;;;;;;;;;;;4915873;29;19916;-80
2022/07/22 16:09:34;;;;;;;;;;;;;;;;;;4916648;29;19915;-78
2022/07/22 16:11:59;;;;;;;;;;;;;;;;;;4916478;29;19919;-80
2022/07/22 16:14:24;;;;;;;;;;;;;;;;;;4916442;29;20280;-79
2022/07/22 16:16:50;;;;;;;;;;;;;;;;;;4921044;29;19970;-80
2022/07/22 16:19:15;;;;;;;;;;;;;;;;;;4921221;29;19943;-81
2022/07/22 16:21:41;;;;;;;;;;;;;;;;;;4922242;29;19915;-78
2022/07/22 16:24:06;;;;;;;;;;;;;;;;;;4922883;29;19938;-80
2022/07/22 16:26:32;;;;;;;;;;;;;;;;;;4921078;29;19915;-80
2022/07/22 16:28:57;;;;;;;;;;;;;;;;;;4920395;29;19915;-81
2022/07/22 16:31:24;;;;;;;;;;;;;;;;;;4918217;29;19919;-79
2022/07/22 16:33:49;;;;;;;;;;;;;;;;;;4919183;29;19922;-79
2022/07/22 16:36:15;;;;;;;;;;;;;;;;;;4915711;29;19915;-81
2022/07/22 16:38:40;;;;;;;;;;;;;;;;;;4915419;29;19962;-79
2022/07/22 16:41:06;;;;;;;;;;;;;;;;;;4916511;29;19919;-80
2022/07/22 16:43:31;;;;;;;;;;;;;;;;;;4915078;29;20345;-80
2022/07/22 16:45:56;;;;;;;;;;;;;;;;;;4915205;29;19919;-80